Time;durP1;ratioP1;P1;durP2;ratioP2;P2;SDS_P1;SDS_P2;PMS_P1;PMS_P2;Temp;Humidity;BMP_temperature;BMP_pressure;BME280_temperature;BME280_humidity;BME280_pressure;Samples;Min_cycle;Max_cycle;Signal;HPM_P1;HPM_P2
2021/07/08 00:00:34;;;;;;;2.22;1.10;;;;;;;22.24;64.49;99597.53;5070762;28;20229;-88
2021/07/08 00:03:02;;;;;;;2.83;1.10;;;;;;;22.16;64.41;99585.38;5054938;28;20229;-89
2021/07/08 00:05:29;;;;;;;2.08;1.20;;;;;;;22.20;64.74;99593.78;5037757;28;20324;-89
2021/07/08 00:07:57;;;;;;;1.40;1.30;;;;;;;22.12;64.90;99588.97;5054147;28;20233;-88
2021/07/08 00:10:31;;;;;;;2.35;1.20;;;;;;;22.08;64.86;99591.50;5037422;28;20231;-89
2021/07/08 00:12:59;;;;;;;1.90;1.20;;;;;;;22.07;65.15;99597.28;5054230;28;20225;-89
2021/07/08 00:15:28;;;;;;;3.35;1.20;;;;;;;22.04;65.48;99597.84;5037643;28;20232;-89
2021/07/08 00:17:56;;;;;;;1.05;1.00;;;;;;;22.00;65.71;99589.44;5070995;28;20225;-89
2021/07/08 00:20:25;;;;;;;1.73;1.27;;;;;;;21.95;65.86;99595.78;5037384;28;20297;-86
2021/07/08 00:22:52;;;;;;;1.55;1.13;;;;;;;21.87;65.99;99604.59;5053955;28;20283;-86
2021/07/08 00:25:25;;;;;;;1.40;1.30;;;;;;;21.85;66.18;99608.72;5037977;28;20229;-87
2021/07/08 00:27:52;;;;;;;1.55;1.13;;;;;;;21.79;66.22;99597.06;5053949;28;20597;-87
2021/07/08 00:30:19;;;;;;;2.25;1.20;;;;;;;21.74;66.26;99599.06;5020805;28;20582;-87
2021/07/08 00:32:47;;;;;;;1.50;1.17;;;;;;;21.69;66.48;99604.59;5037444;28;20287;-86
2021/07/08 00:35:20;;;;;;;1.45;1.10;;;;;;;21.68;66.12;99611.16;5054197;28;20263;-87
2021/07/08 00:37:47;;;;;;;1.27;1.17;;;;;;;21.60;66.42;99601.72;5070755;28;20235;-86
2021/07/08 00:40:15;;;;;;;1.73;1.20;;;;;;;21.55;66.77;99609.94;5070540;28;20226;-85
2021/07/08 00:42:42;;;;;;;1.48;1.17;;;;;;;21.52;67.31;99610.50;5040032;28;20229;-86
2021/07/08 00:45:13;;;;;;;1.88;1.10;;;;;;;21.45;67.67;99612.81;5057870;28;20232;-86
2021/07/08 00:47:40;;;;;;;1.98;1.17;;;;;;;21.45;67.67;99619.06;5057584;28;20236;-87
2021/07/08 00:50:09;;;;;;;1.70;1.33;;;;;;;21.41;67.70;99615.31;5024630;28;20299;-87
2021/07/08 00:52:36;;;;;;;2.05;1.33;;;;;;;21.28;67.79;99605.06;5057517;28;20232;-87
2021/07/08 00:55:05;;;;;;;2.25;1.33;;;;;;;21.24;68.11;99616.84;5041189;28;20309;-89
2021/07/08 00:57:31;;;;;;;1.20;1.20;;;;;;;21.20;68.74;99632.16;5041060;28;20248;-86
2021/07/08 00:59:58;;;;;;;1.35;1.25;;;;;;;21.09;68.97;99624.06;5024472;28;20226;-87
2021/07/08 01:02:25;;;;;;;1.50;1.40;;;;;;;21.15;69.33;99634.94;5057204;28;20656;-86
2021/07/08 01:04:54;;;;;;;1.30;1.20;;;;;;;21.08;69.24;99630.63;5074138;28;20237;-86
2021/07/08 01:07:24;;;;;;;1.42;1.30;;;;;;;20.96;69.20;99616.56;5057634;28;20257;-87
2021/07/08 01:09:52;;;;;;;2.17;1.43;;;;;;;20.98;69.39;99622.56;5057374;28;20892;-88
2021/07/08 01:12:19;;;;;;;1.23;1.10;;;;;;;20.92;69.68;99622.88;5040051;28;20241;-88
2021/07/08 01:14:46;;;;;;;1.77;1.10;;;;;;;20.88;69.74;99621.84;5057521;28;20227;-88
2021/07/08 01:17:13;;;;;;;1.83;1.07;;;;;;;20.85;69.82;99625.97;5073688;28;20289;-88
2021/07/08 01:19:42;;;;;;;1.93;1.50;;;;;;;20.77;70.26;99621.09;5057018;28;20678;-88
2021/07/08 01:22:09;;;;;;;2.20;1.20;;;;;;;20.82;70.51;99631.94;5056910;28;20231;-87
2021/07/08 01:24:36;;;;;;;1.30;1.20;;;;;;;20.70;70.60;99617.09;5040772;28;20231;-88
2021/07/08 01:27:04;;;;;;;1.67;1.40;;;;;;;20.69;70.57;99623.63;5073854;28;20231;-88
2021/07/08 01:29:30;;;;;;;4.30;1.20;;;;;;;20.56;70.30;99608.78;5056951;28;20221;-87
2021/07/08 01:31:58;;;;;;;2.10;1.20;;;;;;;20.63;70.42;99626.41;5024302;28;20254;-88
2021/07/08 01:34:25;;;;;;;1.50;1.23;;;;;;;20.59;70.48;99616.38;5040020;28;20235;-87
2021/07/08 01:36:52;;;;;;;1.57;1.20;;;;;;;20.52;70.52;99607.75;5073973;28;20616;-87
2021/07/08 01:39:19;;;;;;;3.97;1.10;;;;;;;20.48;70.43;99601.25;5056988;28;20230;-87
2021/07/08 01:41:46;;;;;;;1.97;1.30;;;;;;;20.46;70.46;99598.81;5040519;28;20640;-87
2021/07/08 01:44:13;;;;;;;1.30;1.20;;;;;;;20.49;70.72;99616.44;5056621;28;20326;-87
2021/07/08 01:46:41;;;;;;;1.73;1.33;;;;;;;20.40;71.08;99613.53;5040445;28;20278;-87
2021/07/08 01:49:10;;;;;;;1.10;1.10;;;;;;;20.42;71.26;99621.44;5023698;28;20293;-89
2021/07/08 01:51:37;;;;;;;1.40;1.30;;;;;;;20.38;71.60;99617.66;5073656;28;20311;-87
2021/07/08 01:54:08;;;;;;;1.93;1.20;;;;;;;20.30;71.45;99613.59;5055430;28;20238;-86
2021/07/08 01:56:34;;;;;;;1.53;1.27;;;;;;;20.27;71.33;99619.59;5040448;28;20233;-88
2021/07/08 01:59:01;;;;;;;1.40;1.30;;;;;;;20.27;71.33;99624.22;5039805;28;20235;-87
2021/07/08 02:01:28;;;;;;;1.83;1.10;;;;;;;20.23;71.40;99613.09;5022962;28;20311;-90
2021/07/08 02:03:55;;;;;;;1.60;1.20;;;;;;;20.25;70.79;99612.81;5039279;28;20229;-87
2021/07/08 02:06:22;;;;;;;1.43;1.33;;;;;;;20.22;70.84;99619.63;5038883;28;20242;-88
2021/07/08 02:08:49;;;;;;;3.47;1.30;;;;;;;20.16;71.04;99616.13;5056145;28;20316;-88
2021/07/08 02:11:16;;;;;;;2.20;1.20;;;;;;;20.14;71.70;99636.56;5039227;28;20242;-88
2021/07/08 02:13:43;;;;;;;1.30;1.20;;;;;;;20.05;71.51;99620.03;5055900;28;20259;-90
2021/07/08 02:16:11;;;;;;;2.43;1.40;;;;;;;20.08;71.32;99622.16;5055795;28;20640;-88
2021/07/08 02:18:39;;;;;;;1.33;1.10;;;;;;;20.14;70.88;99631.13;5022707;28;20251;-87
2021/07/08 02:21:06;;;;;;;1.57;1.20;;;;;;;20.06;70.70;99620.84;5055761;28;20235;-88
2021/07/08 02:23:33;;;;;;;2.03;1.20;;;;;;;20.18;70.24;99632.16;5039063;28;20252;-88
2021/07/08 02:26:01;;;;;;;2.60;1.20;;;;;;;20.21;69.89;99632.41;5072664;28;20286;-88
2021/07/08 02:28:28;;;;;;;1.33;1.10;;;;;;;20.32;69.04;99643.25;5054602;28;20240;-88
2021/07/08 02:30:55;;;;;;;1.47;1.30;;;;;;;20.37;68.73;99641.31;5055436;28;20236;-88
2021/07/08 02:33:23;;;;;;;1.00;1.00;;;;;;;20.39;68.93;99650.00;5038992;28;20236;-88
2021/07/08 02:35:51;;;;;;;1.10;1.10;;;;;;;20.42;68.67;99645.91;5038679;28;20685;-88
2021/07/08 02:38:19;;;;;;;1.10;1.00;;;;;;;20.49;68.15;99644.47;5055237;28;20307;-88
2021/07/08 02:40:46;;;;;;;3.13;1.20;;;;;;;20.40;68.88;99650.81;5022665;28;20627;-88
2021/07/08 02:43:12;;;;;;;1.20;1.10;;;;;;;20.35;69.11;99656.28;5038942;28;20276;-88
2021/07/08 02:45:41;;;;;;;1.80;1.20;;;;;;;20.33;69.51;99659.31;5038641;28;20315;-87
2021/07/08 02:48:10;;;;;;;2.60;1.30;;;;;;;20.40;68.95;99662.50;5038349;28;20318;-87
2021/07/08 02:50:41;;;;;;;1.47;1.37;;;;;;;20.36;69.01;99649.75;5072118;28;20233;-88
2021/07/08 02:53:09;;;;;;;2.10;1.40;;;;;;;20.35;69.06;99657.09;5038946;28;20307;-88
2021/07/08 02:55:37;;;;;;;1.70;1.20;;;;;;;20.38;69.19;99667.44;5071802;28;20529;-88
2021/07/08 02:58:04;;;;;;;1.30;1.20;;;;;;;20.37;69.02;99660.38;5071037;28;20227;-87
2021/07/08 03:00:31;;;;;;;1.30;1.20;;;;;;;20.43;69.12;99675.56;5071525;28;20245;-88
2021/07/08 03:02:58;;;;;;;1.40;1.30;;;;;;;20.36;69.27;99668.81;5054877;28;20232;-87
2021/07/08 03:05:25;;;;;;;1.47;1.37;;;;;;;20.37;69.39;99671.25;5037377;28;20262;-89
2021/07/08 03:07:52;;;;;;;1.37;1.30;;;;;;;20.35;69.24;99670.72;5071469;28;20533;-87
2021/07/08 03:10:21;;;;;;;1.63;1.50;;;;;;;20.36;69.38;99666.09;5038493;28;20237;-88
2021/07/08 03:12:49;;;;;;;1.80;1.70;;;;;;;20.38;69.42;99681.03;5054817;28;20609;-88
2021/07/08 03:15:16;;;;;;;1.83;1.67;;;;;;;20.41;69.26;99679.66;5038111;28;20228;-88
2021/07/08 03:17:43;;;;;;;1.60;1.50;;;;;;;20.43;69.58;99675.56;5037980;28;20239;-88
2021/07/08 03:20:14;;;;;;;1.97;1.53;;;;;;;20.35;69.52;99665.25;5054353;28;20258;-90
2021/07/08 03:22:42;;;;;;;1.60;1.50;;;;;;;20.42;69.43;99668.50;5038266;28;20327;-90
2021/07/08 03:25:11;;;;;;;3.03;1.53;;;;;;;20.40;69.61;99662.50;5054546;28;20259;-89
2021/07/08 03:27:40;;;;;;;3.23;1.80;;;;;;;20.44;69.46;99665.47;5070997;28;20228;-88
2021/07/08 03:30:09;;;;;;;3.00;1.73;;;;;;;20.49;69.45;99668.16;5053919;28;20355;-89
2021/07/08 03:32:37;;;;;;;1.73;1.63;;;;;;;20.53;69.10;99664.59;5037992;28;20297;-89
2021/07/08 03:35:05;;;;;;;1.77;1.67;;;;;;;20.49;69.23;99662.72;5021451;28;20234;-90
2021/07/08 03:37:32;;;;;;;1.77;1.67;;;;;;;20.50;69.41;99664.34;5037730;28;20235;-88
2021/07/08 03:39:59;;;;;;;2.47;2.00;;;;;;;20.60;69.42;99664.28;5021794;28;20248;-89
2021/07/08 03:42:26;;;;;;;2.20;1.90;;;;;;;20.62;68.88;99667.53;5053968;28;20235;-89
2021/07/08 03:44:54;;;;;;;3.37;1.73;;;;;;;20.61;69.14;99657.75;5055382;28;20223;-89
2021/07/08 03:47:21;;;;;;;2.07;1.73;;;;;;;20.76;68.85;99662.25;5053850;28;20302;-89
2021/07/08 03:49:48;;;;;;;2.00;1.67;;;;;;;20.77;68.75;99675.56;5037740;28;20233;-89
2021/07/08 03:52:15;;;;;;;1.90;1.67;;;;;;;20.85;68.63;99674.97;5037490;28;20579;-89
2021/07/08 03:54:42;;;;;;;2.20;2.00;;;;;;;20.91;68.51;99668.34;5037636;28;20544;-90
2021/07/08 03:57:08;;;;;;;2.23;2.03;;;;;;;20.91;68.02;99656.66;5054542;28;20213;-88
2021/07/08 03:59:35;;;;;;;3.47;2.07;;;;;;;21.06;67.79;99660.06;5021154;28;20567;-89
2021/07/08 04:02:02;;;;;;;2.27;1.90;;;;;;;21.14;67.78;99642.28;5053469;28;20274;-88
2021/07/08 04:04:29;;;;;;;3.07;2.20;;;;;;;21.95;65.28;99650.34;5053932;28;20229;-89
2021/07/08 04:06:56;;;;;;;2.33;1.80;;;;;;;23.13;61.28;99656.41;5053974;28;20227;-89
2021/07/08 04:09:23;;;;;;;2.40;2.20;;;;;;;24.27;57.05;99632.72;5053722;28;20254;-88
2021/07/08 04:11:50;;;;;;;2.97;2.20;;;;;;;25.11;54.35;99666.53;5037828;28;20230;-89
2021/07/08 04:14:29;;;;;;;5.90;2.10;;;;;;;25.31;53.13;99644.06;5053977;28;20226;-89
2021/07/08 04:17:04;;;;;;;4.88;1.98;;;;;;;25.14;53.55;99624.00;5071104;28;20233;-89
2021/07/08 04:19:37;;;;;;;3.65;1.95;;;;;;;25.42;52.86;99655.56;5057739;28;20256;-88
2021/07/08 04:22:05;;;;;;;3.63;2.13;;;;;;;25.38;52.73;99647.13;5074823;28;20624;-88
2021/07/08 04:24:32;;;;;;;3.22;1.90;;;;;;;25.11;53.44;99655.56;5041540;28;20232;-88
2021/07/08 04:27:05;;;;;;;4.60;2.20;;;;;;;25.13;53.06;99636.88;5073581;28;20229;-88
2021/07/08 04:29:32;;;;;;;3.42;2.17;;;;;;;25.12;53.31;99651.72;5024243;28;20311;-88
2021/07/08 04:31:59;;;;;;;4.93;2.15;;;;;;;25.08;53.61;99652.66;5040998;28;20232;-87
2021/07/08 04:34:25;;;;;;;2.30;2.00;;;;;;;25.61;52.67;99672.63;5040894;28;20664;-88
2021/07/08 04:36:52;;;;;;;2.70;2.05;;;;;;;26.06;50.91;99659.47;5074085;28;20262;-87
2021/07/08 04:39:19;;;;;;;4.50;2.03;;;;;;;25.98;50.75;99649.28;5057720;28;20657;-88
2021/07/08 04:41:47;;;;;;;3.75;2.53;;;;;;;25.49;52.30;99646.84;5041193;28;20304;-88
2021/07/08 04:44:14;;;;;;;4.32;1.85;;;;;;;25.07;53.93;99654.59;5040450;28;20660;-88
2021/07/08 04:46:41;;;;;;;8.43;2.30;;;;;;;25.06;53.78;99654.88;5074388;28;20237;-88
2021/07/08 04:49:08;;;;;;;5.38;2.08;;;;;;;24.47;55.49;99654.97;5057142;28;20539;-88
2021/07/08 04:51:39;;;;;;;4.97;2.38;;;;;;;24.53;55.66;99647.44;5074816;28;20344;-89
2021/07/08 04:54:06;;;;;;;2.55;2.00;;;;;;;24.35;55.71;99643.78;5040631;28;20232;-88
2021/07/08 04:56:33;;;;;;;2.78;1.80;;;;;;;24.42;55.85;99646.06;5040943;28;20308;-88
2021/07/08 04:59:00;;;;;;;4.22;2.17;;;;;;;24.05;56.06;99636.22;5041157;28;20237;-89
2021/07/08 05:01:26;;;;;;;2.50;2.17;;;;;;;24.26;56.03;99631.94;5024669;28;20226;-89
2021/07/08 05:03:59;;;;;;;2.15;1.95;;;;;;;24.26;56.34;99644.81;5057668;28;20316;-88
2021/07/08 05:06:27;;;;;;;3.85;2.30;;;;;;;24.41;55.73;99645.25;5041650;28;20576;-88
2021/07/08 05:08:54;;;;;;;2.85;2.22;;;;;;;24.35;55.76;99643.78;5057360;28;20234;-89
2021/07/08 05:11:23;;;;;;;5.00;2.50;;;;;;;24.39;55.49;99639.28;5057690;28;20560;-88
2021/07/08 05:13:50;;;;;;;4.63;2.10;;;;;;;24.46;55.70;99641.56;5041045;28;20230;-88
2021/07/08 05:16:18;;;;;;;4.72;2.40;;;;;;;24.48;56.00;99644.84;5039928;28;20639;-89
2021/07/08 05:18:48;;;;;;;3.45;2.42;;;;;;;24.21;56.18;99639.47;5025263;28;20235;-89
2021/07/08 05:21:15;;;;;;;4.10;2.65;;;;;;;24.62;55.57;99651.06;5056941;28;20229;-89
2021/07/08 05:23:42;;;;;;;5.07;2.30;;;;;;;24.66;55.29;99657.53;5056702;28;20689;-88
2021/07/08 05:26:08;;;;;;;3.80;2.20;;;;;;;24.74;55.49;99648.56;5056739;28;20320;-89
2021/07/08 05:28:35;;;;;;;3.38;2.55;;;;;;;24.57;55.40;99642.97;5055784;28;20257;-89
2021/07/08 05:31:02;;;;;;;4.95;2.55;;;;;;;24.46;56.16;99650.59;5040330;28;20312;-88
2021/07/08 05:33:29;;;;;;;4.30;3.90;;;;;;;24.66;55.93;99645.75;5073606;28;20267;-89
2021/07/08 05:35:56;;;;;;;4.07;3.72;;;;;;;24.80;55.50;99651.97;5090526;28;20309;-88
2021/07/08 05:38:23;;;;;;;3.80;3.17;;;;;;;24.94;55.02;99653.56;5073227;28;20305;-88
2021/07/08 05:40:49;;;;;;;3.17;2.92;;;;;;;25.17;54.51;99643.34;5040295;28;20237;-88
2021/07/08 05:43:16;;;;;;;3.70;2.97;;;;;;;25.33;54.07;99639.09;5073263;28;20315;-87
2021/07/08 05:45:43;;;;;;;4.22;2.92;;;;;;;25.56;53.59;99645.31;5040053;28;20303;-87
2021/07/08 05:48:10;;;;;;;3.53;3.17;;;;;;;25.81;52.69;99649.25;5039230;28;20601;-88
2021/07/08 05:50:36;;;;;;;3.33;3.10;;;;;;;25.83;52.66;99639.56;5039868;28;20225;-87
2021/07/08 05:53:03;;;;;;;3.25;3.00;;;;;;;25.99;52.42;99641.88;5056165;28;20255;-88
2021/07/08 05:55:30;;;;;;;4.45;3.05;;;;;;;26.04;52.07;99647.19;5073341;28;20684;-89
2021/07/08 05:57:57;;;;;;;3.42;3.05;;;;;;;26.10;51.74;99632.16;5055959;28;20229;-88
2021/07/08 06:00:24;;;;;;;3.90;3.50;;;;;;;26.31;51.35;99641.44;5039202;28;20236;-88
2021/07/08 06:02:51;;;;;;;4.07;3.38;;;;;;;26.52;51.29;99639.63;5055757;28;20638;-87
2021/07/08 06:05:18;;;;;;;3.90;3.60;;;;;;;25.99;51.97;99634.41;5039720;28;20516;-88
2021/07/08 06:07:45;;;;;;;4.30;3.83;;;;;;;25.60;53.65;99640.00;5055453;28;20667;-87
2021/07/08 06:10:13;;;;;;;7.18;3.72;;;;;;;25.85;53.24;99628.25;5055667;28;20273;-91
2021/07/08 06:12:41;;;;;;;5.82;4.03;;;;;;;26.21;52.56;99648.06;5056173;28;20315;-90
2021/07/08 06:15:08;;;;;;;4.55;4.10;;;;;;;26.47;52.09;99634.31;5053891;28;20306;-90
2021/07/08 06:17:35;;;;;;;4.25;3.90;;;;;;;26.38;51.60;99641.75;5043303;28;20328;-90
2021/07/08 06:20:02;;;;;;;4.78;4.18;;;;;;;26.09;52.40;99644.28;5068439;28;20616;-90
2021/07/08 06:22:29;;;;;;;4.28;3.95;;;;;;;26.17;52.35;99643.50;5068900;28;20588;-88
2021/07/08 06:24:56;;;;;;;4.35;3.95;;;;;;;26.55;51.64;99646.44;5052031;28;20223;-91
2021/07/08 06:27:23;;;;;;;4.50;4.10;;;;;;;26.55;51.51;99651.94;5053727;28;20225;-91
2021/07/08 06:29:50;;;;;;;4.43;3.88;;;;;;;26.49;51.83;99639.47;5056000;28;20248;-91
2021/07/08 06:32:18;;;;;;;4.20;3.90;;;;;;;26.79;50.73;99651.38;5054194;28;20221;-91
2021/07/08 06:34:45;;;;;;;6.32;4.03;;;;;;;27.01;49.95;99646.53;5054203;28;20290;-90
2021/07/08 06:37:12;;;;;;;4.20;3.80;;;;;;;27.15;49.83;99632.59;5036381;28;20646;-91
2021/07/08 06:39:39;;;;;;;4.60;3.97;;;;;;;27.07;49.73;99655.41;5054206;28;20330;-90
2021/07/08 06:42:06;;;;;;;4.20;3.80;;;;;;;27.14;49.35;99655.72;5054534;28;20302;-91
2021/07/08 06:44:34;;;;;;;4.13;3.60;;;;;;;27.23;49.11;99631.75;5056192;28;20627;-89
2021/07/08 06:47:02;;;;;;;4.15;3.75;;;;;;;27.27;50.01;99646.44;5037378;28;20651;-90
2021/07/08 06:49:30;;;;;;;4.25;3.85;;;;;;;27.26;49.65;99646.75;5052026;28;20260;-91
2021/07/08 06:51:57;;;;;;;5.55;4.15;;;;;;;27.56;49.46;99645.69;5053995;28;20641;-89
2021/07/08 06:54:24;;;;;;;4.53;4.10;;;;;;;27.34;48.68;99637.69;5037862;28;20229;-89
2021/07/08 06:56:51;;;;;;;4.57;3.83;;;;;;;27.48;48.73;99643.78;5055166;28;20222;-90
2021/07/08 06:59:18;;;;;;;5.15;3.88;;;;;;;26.90;50.39;99648.00;5037004;28;20232;-90
2021/07/08 07:01:45;;;;;;;4.32;3.92;;;;;;;27.30;49.26;99642.22;5054371;28;20229;-87
2021/07/08 07:04:11;;;;;;;5.18;3.63;;;;;;;27.29;49.33;99637.88;5036462;28;20519;-91
2021/07/08 07:06:38;;;;;;;4.30;3.83;;;;;;;27.41;49.62;99647.03;5038420;28;20237;-90
2021/07/08 07:09:05;;;;;;;4.07;3.17;;;;;;;27.72;48.57;99654.19;5053077;28;20239;-89
2021/07/08 07:11:32;;;;;;;4.95;3.97;;;;;;;27.77;48.38;99649.28;5021625;28;20255;-88
2021/07/08 07:13:59;;;;;;;5.38;4.40;;;;;;;28.03;48.06;99652.72;5021808;28;20625;-90
2021/07/08 07:16:26;;;;;;;4.70;4.20;;;;;;;28.29;47.63;99637.94;5037539;28;20233;-90
2021/07/08 07:18:53;;;;;;;5.88;4.82;;;;;;;27.87;48.25;99643.41;5054193;28;20295;-91
2021/07/08 07:21:19;;;;;;;10.27;5.13;;;;;;;27.90;47.99;99636.44;5021583;28;20235;-91
2021/07/08 07:23:47;;;;;;;6.53;4.13;;;;;;;28.11;48.15;99636.47;5054391;28;20236;-90
2021/07/08 07:26:14;;;;;;;6.90;4.30;;;;;;;28.11;47.82;99628.22;5037592;28;20291;-91
2021/07/08 07:28:41;;;;;;;6.53;4.68;;;;;;;28.21;47.65;99630.56;5051099;28;20221;-91
2021/07/08 07:31:07;;;;;;;5.90;3.97;;;;;;;28.27;46.70;99626.47;5037296;28;20221;-88
2021/07/08 07:33:35;;;;;;;5.07;4.20;;;;;;;28.37;46.84;99632.38;5037505;28;20606;-90
2021/07/08 07:36:02;;;;;;;5.47;4.10;;;;;;;28.00;47.98;99623.06;5037488;28;20249;-91
2021/07/08 07:38:29;;;;;;;6.90;4.25;;;;;;;27.94;48.03;99623.63;5020978;28;20253;-90
2021/07/08 07:40:56;;;;;;;8.70;3.80;;;;;;;28.13;47.21;99621.25;5037622;28;20600;-90
2021/07/08 07:43:23;;;;;;;6.68;4.50;;;;;;;28.15;47.86;99615.38;5037309;28;20700;-90
2021/07/08 07:45:50;;;;;;;8.10;3.80;;;;;;;28.01;48.18;99591.66;5053731;28;20321;-91
2021/07/08 07:48:18;;;;;;;7.65;4.30;;;;;;;28.25;47.74;99599.25;5020550;28;20252;-90
2021/07/08 07:50:44;;;;;;;5.97;4.10;;;;;;;28.43;47.27;99610.91;5005091;28;20633;-90
2021/07/08 07:53:12;;;;;;;6.18;4.30;;;;;;;28.68;46.36;99609.06;5021616;28;20226;-90
2021/07/08 07:55:38;;;;;;;6.03;4.15;;;;;;;28.89;46.10;99607.88;5036492;28;20225;-89
2021/07/08 07:58:06;;;;;;;4.68;4.28;;;;;;;29.09;45.45;99599.88;5033498;28;20264;-90
2021/07/08 08:00:33;;;;;;;4.47;3.90;;;;;;;29.08;45.92;99603.78;5017196;28;20238;-90
2021/07/08 08:02:59;;;;;;;4.03;3.70;;;;;;;29.11;45.44;99598.41;5044027;28;20225;-90
2021/07/08 08:10:41;;;;;;;4.25;3.88;;;;;;;29.85;43.92;99604.72;5046100;28;20226;-90
2021/07/08 08:13:09;;;;;;;5.60;4.20;;;;;;;30.00;43.35;99598.50;5034329;28;20344;-90
2021/07/08 08:15:37;;;;;;;4.38;3.88;;;;;;;30.18;42.95;99591.53;5050620;28;20234;-90
2021/07/08 08:18:04;;;;;;;5.63;4.05;;;;;;;30.05;43.68;99587.22;5033086;28;20260;-90
2021/07/08 08:20:32;;;;;;;4.80;4.40;;;;;;;30.27;43.12;99588.63;5068639;28;20233;-89
2021/07/08 08:22:59;;;;;;;4.80;4.30;;;;;;;30.28;42.66;99598.53;5037264;28;20319;-90
2021/07/08 08:25:26;;;;;;;5.63;3.95;;;;;;;30.15;43.50;99595.81;5037408;28;20225;-89
2021/07/08 08:27:53;;;;;;;4.70;3.95;;;;;;;30.31;43.50;99586.78;5036936;28;20272;-89
2021/07/08 08:30:20;;;;;;;5.38;4.50;;;;;;;30.05;43.48;99576.94;5036664;28;20526;-86
2021/07/08 08:32:50;;;;;;;4.70;4.30;;;;;;;29.99;44.35;99588.59;5053773;28;20336;-88
2021/07/08 08:35:18;;;;;;;6.47;4.47;;;;;;;29.81;44.55;99582.53;5037001;28;20240;-88
2021/07/08 08:37:45;;;;;;;6.93;4.47;;;;;;;30.24;43.70;99590.13;5036488;28;20244;-86
2021/07/08 08:40:13;;;;;;;4.65;4.25;;;;;;;30.42;43.04;99591.44;5036214;28;20233;-89
2021/07/08 08:42:42;;;;;;;5.07;4.35;;;;;;;30.71;42.62;99595.81;5020724;28;20554;-89
2021/07/08 08:45:11;;;;;;;6.53;4.28;;;;;;;30.61;42.86;99585.25;5053551;28;20222;-88
2021/07/08 08:48:02;;;;;;;6.20;4.90;;;;;;;30.46;42.57;99592.38;5069212;28;20582;-88
2021/07/08 08:50:36;;;;;;;5.25;4.82;;;;;;;30.46;42.45;99597.91;5047133;28;20226;-89
2021/07/08 08:53:04;;;;;;;5.35;4.70;;;;;;;30.63;42.86;99585.72;5055138;28;20680;-89
2021/07/08 08:55:35;;;;;;;6.80;5.07;;;;;;;30.79;42.40;99583.81;5027052;28;20221;-88
2021/07/08 08:58:10;;;;;;;7.13;4.75;;;;;;;30.99;42.21;99590.22;5036428;28;20232;-88
2021/07/08 09:00:55;;;;;;;5.63;5.10;;;;;;;31.29;41.06;99583.13;5036430;28;20528;-89
2021/07/08 09:03:29;;;;;;;7.68;5.00;;;;;;;31.49;40.68;99578.47;5054865;28;20704;-86
2021/07/08 09:05:58;;;;;;;5.32;4.93;;;;;;;31.65;41.08;99573.72;5056454;28;20621;-88
2021/07/08 09:08:25;;;;;;;7.65;4.97;;;;;;;31.82;40.48;99572.50;5039215;28;20275;-87
2021/07/08 09:11:01;;;;;;;5.95;5.00;;;;;;;31.80;39.87;99574.84;5040220;28;20225;-87
2021/07/08 09:13:29;;;;;;;5.88;5.38;;;;;;;31.74;39.99;99563.22;5056373;28;20225;-88
2021/07/08 09:16:09;;;;;;;5.63;4.88;;;;;;;31.83;40.24;99560.25;5057115;28;20229;-88
2021/07/08 09:18:37;;;;;;;5.38;4.97;;;;;;;32.06;40.23;99563.09;5039810;28;20237;-88
2021/07/08 09:21:21;;;;;;;5.68;5.10;;;;;;;32.23;39.08;99559.94;5040364;28;20582;-88
2021/07/08 09:24:17;;;;;;;6.00;5.30;;;;;;;32.49;39.29;99545.38;5036491;28;20236;-88
2021/07/08 09:27:08;;;;;;;6.70;4.90;;;;;;;32.49;39.25;99526.78;5052510;28;20535;-88
2021/07/08 09:29:47;;;;;;;5.03;4.53;;;;;;;32.72;39.65;99537.91;5019696;28;20241;-88
2021/07/08 09:32:20;;;;;;;6.93;5.18;;;;;;;32.90;38.74;99539.03;5069208;28;20234;-89
2021/07/08 09:34:51;;;;;;;5.57;5.07;;;;;;;32.95;39.22;99527.63;5036702;28;20230;-89
2021/07/08 09:37:20;;;;;;;5.95;5.22;;;;;;;33.25;37.94;99533.28;5053212;28;20241;-87
2021/07/08 09:39:56;;;;;;;5.93;5.35;;;;;;;33.45;37.50;99528.44;5053141;28;20230;-88
2021/07/08 09:42:41;;;;;;;7.55;5.00;;;;;;;33.52;37.57;99531.31;5035762;28;20234;-88
2021/07/08 09:45:08;;;;;;;5.68;4.78;;;;;;;33.69;36.74;99516.88;5036302;28;20232;-88
2021/07/08 09:47:37;;;;;;;6.60;4.82;;;;;;;33.87;36.39;99515.16;5035731;28;20587;-88
2021/07/08 09:50:06;;;;;;;7.00;5.15;;;;;;;33.89;36.06;99504.47;5039214;28;20287;-88
2021/07/08 09:52:33;;;;;;;7.07;5.35;;;;;;;34.03;36.38;99512.97;5039240;28;20638;-89
2021/07/08 09:57:45;;;;;;;5.25;4.78;;;;;;;34.19;35.74;99498.09;5055509;28;20291;-89
2021/07/08 10:00:19;;;;;;;6.82;5.07;;;;;;;34.36;35.41;99506.63;5023400;28;20253;-88
2021/07/08 10:02:47;;;;;;;5.50;5.10;;;;;;;34.40;35.32;99503.88;5055525;28;20580;-89
2021/07/08 10:05:15;;;;;;;5.40;4.70;;;;;;;34.52;35.73;99486.13;5039552;28;20253;-87
2021/07/08 10:07:42;;;;;;;5.68;5.07;;;;;;;34.62;34.78;99486.22;5055636;28;20666;-88
2021/07/08 10:10:09;;;;;;;5.40;4.82;;;;;;;34.77;34.87;99492.72;5038759;28;20217;-88
2021/07/08 10:12:37;;;;;;;8.48;4.90;;;;;;;34.91;34.14;99478.91;5022743;28;20230;-88
2021/07/08 10:15:07;;;;;;;5.15;4.70;;;;;;;34.89;34.52;99478.53;5054630;28;20312;-88
2021/07/08 10:17:36;;;;;;;6.38;4.63;;;;;;;34.94;33.78;99463.44;5038931;28;20234;-87
2021/07/08 10:20:14;;;;;;;5.63;4.78;;;;;;;35.04;33.20;99471.88;5038608;28;20249;-89
2021/07/08 10:22:42;;;;;;;7.25;4.65;;;;;;;35.23;33.29;99454.13;5052981;28;20221;-89
2021/07/08 10:25:11;;;;;;;4.53;4.13;;;;;;;35.45;32.38;99464.22;5051947;28;20309;-89
2021/07/08 10:27:40;;;;;;;4.78;4.47;;;;;;;35.53;32.49;99454.69;5019384;28;20242;-89
2021/07/08 10:30:07;;;;;;;5.50;4.93;;;;;;;35.62;33.82;99459.91;5054790;28;20233;-89
2021/07/08 10:32:34;;;;;;;4.75;4.35;;;;;;;35.71;33.59;99447.22;5039028;28;20320;-89
2021/07/08 10:35:02;;;;;;;6.60;4.63;;;;;;;35.67;33.38;99452.00;5038677;28;20229;-89
2021/07/08 10:37:32;;;;;;;6.38;5.03;;;;;;;35.80;33.79;99452.44;5038466;28;20313;-88
2021/07/08 10:40:26;;;;;;;6.80;5.10;;;;;;;35.66;33.59;99444.03;5039695;28;20300;-89
2021/07/08 10:42:54;;;;;;;10.75;5.32;;;;;;;35.65;33.91;99426.50;5054507;28;20242;-88
2021/07/08 10:45:26;;;;;;;6.85;4.90;;;;;;;35.69;33.48;99430.13;5038705;28;20687;-89
2021/07/08 10:48:11;;;;;;;8.35;4.80;;;;;;;35.90;33.94;99417.44;5054820;28;20237;-89
2021/07/08 10:50:45;;;;;;;5.90;5.40;;;;;;;35.95;32.05;99412.28;5054712;28;20234;-89
2021/07/08 10:53:17;;;;;;;5.05;4.50;;;;;;;36.01;31.96;99399.56;5054752;28;20284;-89
2021/07/08 10:55:46;;;;;;;5.68;4.63;;;;;;;36.21;32.69;99413.16;5054695;28;20283;-88
2021/07/08 10:58:43;;;;;;;5.28;4.85;;;;;;;36.22;32.17;99400.78;5069899;28;20321;-89
2021/07/08 11:01:37;;;;;;;5.28;4.50;;;;;;;36.45;30.75;99401.19;5071281;28;20222;-88
2021/07/08 11:04:04;;;;;;;6.45;4.40;;;;;;;36.59;30.48;99388.03;5054952;28;20237;-88
2021/07/08 11:06:34;;;;;;;5.35;4.65;;;;;;;36.63;30.61;99388.88;5038218;28;20230;-87
2021/07/08 11:09:06;;;;;;;8.45;4.80;;;;;;;36.85;30.61;99388.84;5022596;28;20232;-87
2021/07/08 11:11:33;;;;;;;5.25;4.75;;;;;;;36.95;30.36;99383.25;5054119;28;20232;-88
2021/07/08 11:14:06;;;;;;;5.60;4.45;;;;;;;37.12;30.32;99378.06;5087548;28;20232;-88
2021/07/08 11:16:48;;;;;;;6.20;5.10;;;;;;;37.24;30.85;99372.00;5087886;28;20229;-88
2021/07/08 11:19:38;;;;;;;5.88;4.70;;;;;;;37.47;30.49;99358.34;5070606;28;20225;-89
2021/07/08 11:22:09;;;;;;;6.28;4.70;;;;;;;37.62;29.99;99368.28;5070472;28;20249;-89
2021/07/08 11:24:42;;;;;;;7.38;5.10;;;;;;;37.77;29.41;99364.22;5054510;28;20236;-88
2021/07/08 11:27:11;;;;;;;6.97;5.40;;;;;;;37.70;28.79;99357.88;5037048;28;20657;-89
2021/07/08 11:29:43;;;;;;;6.75;5.60;;;;;;;37.80;28.61;99355.00;5037561;28;20221;-88
2021/07/08 11:32:28;;;;;;;7.10;6.40;;;;;;;37.98;28.70;99357.75;5020978;28;20313;-88
2021/07/08 11:34:59;;;;;;;7.18;6.38;;;;;;;38.14;28.00;99346.81;5054048;28;20235;-88
2021/07/08 11:37:31;;;;;;;7.30;6.60;;;;;;;37.95;28.52;99338.94;5037301;28;20225;-88
2021/07/08 11:39:59;;;;;;;7.60;6.10;;;;;;;38.09;28.52;99347.25;5038026;28;20719;-89
2021/07/08 11:42:34;;;;;;;7.20;6.18;;;;;;;38.26;28.89;99349.09;5018928;28;20279;-89
2021/07/08 11:45:06;;;;;;;7.13;6.50;;;;;;;38.28;28.51;99340.31;5080301;28;20247;-89
2021/07/08 11:47:43;;;;;;;6.45;5.95;;;;;;;38.47;28.31;99344.56;5037083;28;20256;-87
2021/07/08 11:50:23;;;;;;;7.68;6.90;;;;;;;38.59;27.00;99347.66;5037100;28;20313;-88